Time;durP1;ratioP1;P1;durP2;ratioP2;P2;SDS_P1;SDS_P2;PMS_P1;PMS_P2;Temp;Humidity;BMP_temperature;BMP_pressure;BME280_temperature;BME280_humidity;BME280_pressure;Samples;Min_cycle;Max_cycle;Signal;HPM_P1;HPM_P2
2023/03/04 00:01:07;;;;;;;96.40;28.92;;;;;;;;;;5074666;28;20245;-66
2023/03/04 00:03:36;;;;;;;104.93;33.00;;;;;;;;;;5074685;28;20212;-66
2023/03/04 00:06:03;;;;;;;104.82;29.05;;;;;;;;;;5074334;28;20651;-66
2023/03/04 00:08:30;;;;;;;113.38;32.25;;;;;;;;;;5074305;28;20205;-66
2023/03/04 00:10:57;;;;;;;107.68;30.67;;;;;;;;;;5074354;28;20209;-66
2023/03/04 00:13:24;;;;;;;105.35;32.38;;;;;;;;;;5074860;28;20211;-66
2023/03/04 00:15:53;;;;;;;104.85;31.60;;;;;;;;;;5074568;28;20221;-66
2023/03/04 00:18:20;;;;;;;107.30;31.38;;;;;;;;;;5074240;28;20203;-66
2023/03/04 00:20:48;;;;;;;111.45;31.55;;;;;;;;;;5073906;28;20251;-66
2023/03/04 00:23:15;;;;;;;101.47;29.30;;;;;;;;;;5074368;28;20252;-66
2023/03/04 00:25:42;;;;;;;109.13;33.38;;;;;;;;;;5073911;28;20241;-66
2023/03/04 00:28:09;;;;;;;104.10;29.70;;;;;;;;;;5074018;28;20213;-66
2023/03/04 00:30:37;;;;;;;110.53;32.05;;;;;;;;;;5074031;28;20341;-66
2023/03/04 00:33:05;;;;;;;110.38;32.08;;;;;;;;;;5074075;28;20210;-66
2023/03/04 00:35:32;;;;;;;107.22;31.95;;;;;;;;;;5073885;28;20232;-66
2023/03/04 00:37:59;;;;;;;108.95;31.33;;;;;;;;;;5073861;28;20210;-66
2023/03/04 00:40:27;;;;;;;102.43;30.25;;;;;;;;;;5073490;28;20713;-66
2023/03/04 00:42:54;;;;;;;102.53;29.33;;;;;;;;;;5074034;28;20207;-66
2023/03/04 00:45:21;;;;;;;104.05;29.15;;;;;;;;;;5072602;28;20756;-66
2023/03/04 00:47:49;;;;;;;107.88;30.95;;;;;;;;;;5073846;28;20215;-66
2023/03/04 00:50:17;;;;;;;105.60;29.33;;;;;;;;;;5073467;28;20205;-66
2023/03/04 00:52:44;;;;;;;107.35;29.35;;;;;;;;;;5073641;28;20212;-66
2023/03/04 00:55:11;;;;;;;107.32;31.33;;;;;;;;;;5073419;28;20730;-66
2023/03/04 00:57:39;;;;;;;104.85;29.65;;;;;;;;;;5073840;28;20219;-66
2023/03/04 01:00:06;;;;;;;104.50;30.70;;;;;;;;;;5073247;28;20561;-66
2023/03/04 01:02:33;;;;;;;101.32;28.88;;;;;;;;;;5073455;28;20222;-64
2023/03/04 01:05:00;;;;;;;104.50;31.33;;;;;;;;;;5073447;28;20202;-64
2023/03/04 01:07:29;;;;;;;106.88;29.40;;;;;;;;;;5073296;28;20207;-64
2023/03/04 01:09:56;;;;;;;102.05;30.40;;;;;;;;;;5073159;28;20206;-64
2023/03/04 01:12:23;;;;;;;99.43;29.40;;;;;;;;;;5073414;28;20198;-65
2023/03/04 01:14:50;;;;;;;103.90;27.83;;;;;;;;;;5073123;28;20673;-65
2023/03/04 01:17:17;;;;;;;101.45;30.58;;;;;;;;;;5073275;28;20610;-65
2023/03/04 01:19:44;;;;;;;104.32;29.67;;;;;;;;;;5072694;28;20203;-65
2023/03/04 01:22:13;;;;;;;104.90;29.42;;;;;;;;;;5072796;28;20225;-65
2023/03/04 01:24:42;;;;;;;104.00;30.67;;;;;;;;;;5073106;28;20209;-65
2023/03/04 01:27:09;;;;;;;106.10;30.52;;;;;;;;;;5073005;28;20250;-65
2023/03/04 01:29:36;;;;;;;114.07;30.27;;;;;;;;;;5072623;28;20208;-65
2023/03/04 01:32:03;;;;;;;107.43;30.95;;;;;;;;;;5072808;28;20197;-65
2023/03/04 01:34:31;;;;;;;109.90;30.33;;;;;;;;;;5072708;28;20201;-65
2023/03/04 01:36:58;;;;;;;104.75;31.25;;;;;;;;;;5072519;28;20332;-65
2023/03/04 01:39:25;;;;;;;105.85;33.33;;;;;;;;;;5072480;28;20215;-65
2023/03/04 01:41:53;;;;;;;111.88;32.38;;;;;;;;;;5072698;28;20229;-65
2023/03/04 01:44:20;;;;;;;106.47;30.50;;;;;;;;;;5072759;28;20330;-66
2023/03/04 01:46:49;;;;;;;106.53;31.95;;;;;;;;;;5072447;28;20224;-65
2023/03/04 01:49:16;;;;;;;103.07;29.98;;;;;;;;;;5072023;28;20205;-65
2023/03/04 01:51:44;;;;;;;106.45;31.92;;;;;;;;;;5072550;28;20201;-65
2023/03/04 01:54:11;;;;;;;107.90;30.17;;;;;;;;;;5072817;28;20587;-65
2023/03/04 01:56:39;;;;;;;104.15;30.65;;;;;;;;;;5072361;28;20221;-65
2023/03/04 01:59:12;;;;;;;109.53;30.75;;;;;;;;;;5071930;28;20205;-65
2023/03/04 02:01:39;;;;;;;109.43;29.50;;;;;;;;;;5072036;28;20232;-65
2023/03/04 02:04:07;;;;;;;111.47;33.22;;;;;;;;;;5072519;28;20203;-65
2023/03/04 02:06:34;;;;;;;110.10;30.67;;;;;;;;;;5072314;28;20229;-65
2023/03/04 02:09:01;;;;;;;107.70;31.65;;;;;;;;;;5071798;28;20686;-65
2023/03/04 02:11:29;;;;;;;106.38;28.70;;;;;;;;;;5072051;28;20205;-65
2023/03/04 02:13:56;;;;;;;103.45;31.02;;;;;;;;;;5072049;28;20687;-65
2023/03/04 02:16:24;;;;;;;108.72;30.73;;;;;;;;;;5071806;28;20230;-65
2023/03/04 02:18:52;;;;;;;105.65;30.88;;;;;;;;;;5071758;28;20224;-65
2023/03/04 02:21:22;;;;;;;109.32;31.85;;;;;;;;;;5071978;28;20248;-65
2023/03/04 02:23:54;;;;;;;111.18;33.20;;;;;;;;;;5071787;28;20209;-65
2023/03/04 02:26:23;;;;;;;104.45;29.70;;;;;;;;;;5071758;28;20228;-65
2023/03/04 02:28:52;;;;;;;111.40;34.80;;;;;;;;;;5071537;28;20587;-65
2023/03/04 02:31:30;;;;;;;110.75;33.55;;;;;;;;;;5071971;28;20201;-65
2023/03/04 02:33:58;;;;;;;114.30;31.92;;;;;;;;;;5071869;28;20238;-65
2023/03/04 02:36:26;;;;;;;108.47;31.48;;;;;;;;;;5071545;28;20229;-65
2023/03/04 02:38:54;;;;;;;120.72;33.22;;;;;;;;;;5071458;28;20578;-65
2023/03/04 02:41:24;;;;;;;110.32;32.05;;;;;;;;;;5071445;28;20593;-65
2023/03/04 02:43:54;;;;;;;100.45;30.45;;;;;;;;;;5071741;28;20208;-65
2023/03/04 02:46:21;;;;;;;109.05;29.13;;;;;;;;;;5071875;28;20230;-65
2023/03/04 02:48:48;;;;;;;101.43;30.10;;;;;;;;;;5071300;28;20205;-64
2023/03/04 02:51:15;;;;;;;108.93;32.22;;;;;;;;;;5071809;28;20293;-64
2023/03/04 02:53:43;;;;;;;103.00;31.25;;;;;;;;;;5071615;28;20216;-65
2023/03/04 02:56:10;;;;;;;106.70;30.55;;;;;;;;;;5070513;28;20229;-64
2023/03/04 02:58:39;;;;;;;106.28;30.60;;;;;;;;;;5071394;28;20209;-64
2023/03/04 03:01:06;;;;;;;102.80;30.35;;;;;;;;;;5071670;28;20221;-64
2023/03/04 03:03:33;;;;;;;104.55;30.73;;;;;;;;;;5071601;28;20209;-64
2023/03/04 03:06:00;;;;;;;108.22;32.20;;;;;;;;;;5071358;28;20244;-64
2023/03/04 03:08:27;;;;;;;104.07;31.20;;;;;;;;;;5073938;28;20205;-64
2023/03/04 03:10:55;;;;;;;107.63;33.03;;;;;;;;;;5075422;28;20205;-64
2023/03/04 03:13:22;;;;;;;110.47;30.38;;;;;;;;;;5075665;28;20203;-64
2023/03/04 03:15:50;;;;;;;101.95;30.30;;;;;;;;;;5075440;28;20236;-64
2023/03/04 03:18:17;;;;;;;104.88;28.52;;;;;;;;;;5075479;28;20590;-64
2023/03/04 03:20:44;;;;;;;112.13;30.55;;;;;;;;;;5075021;28;20201;-64
2023/03/04 03:23:11;;;;;;;101.47;31.35;;;;;;;;;;5075469;28;20228;-64
2023/03/04 03:25:39;;;;;;;104.75;31.40;;;;;;;;;;5075211;28;20472;-64
2023/03/04 03:28:06;;;;;;;108.93;33.30;;;;;;;;;;5075251;28;20205;-64
2023/03/04 03:30:33;;;;;;;108.78;29.63;;;;;;;;;;5074736;28;20699;-64
2023/03/04 03:33:02;;;;;;;99.05;30.65;;;;;;;;;;5075194;28;20208;-64
2023/03/04 03:35:29;;;;;;;109.88;31.48;;;;;;;;;;5074965;28;20731;-64
2023/03/04 03:37:56;;;;;;;110.47;32.35;;;;;;;;;;5075315;28;20205;-64
2023/03/04 03:40:23;;;;;;;106.65;31.05;;;;;;;;;;5074695;28;20205;-64
2023/03/04 03:42:50;;;;;;;106.70;29.65;;;;;;;;;;5074985;28;20594;-64
2023/03/04 03:45:17;;;;;;;105.90;29.90;;;;;;;;;;5074814;28;20248;-64
2023/03/04 03:47:44;;;;;;;111.03;31.08;;;;;;;;;;5074935;28;20229;-64
2023/03/04 03:50:13;;;;;;;105.70;31.65;;;;;;;;;;5074617;28;20555;-64
2023/03/04 03:52:40;;;;;;;106.38;30.63;;;;;;;;;;5075109;28;20205;-64
2023/03/04 03:55:07;;;;;;;102.60;27.95;;;;;;;;;;5074813;28;20209;-64
2023/03/04 03:57:34;;;;;;;97.85;27.80;;;;;;;;;;5074634;28;20201;-64
2023/03/04 04:00:02;;;;;;;103.60;28.55;;;;;;;;;;5074101;28;20204;-64
2023/03/04 04:02:29;;;;;;;102.20;30.13;;;;;;;;;;5074165;28;20218;-64
2023/03/04 04:04:56;;;;;;;97.88;26.67;;;;;;;;;;5074756;28;20231;-64
2023/03/04 04:07:24;;;;;;;107.57;32.08;;;;;;;;;;5074584;28;20201;-64
2023/03/04 04:09:51;;;;;;;99.93;28.73;;;;;;;;;;5074069;28;20205;-64
2023/03/04 04:12:19;;;;;;;97.78;28.45;;;;;;;;;;5074423;28;20201;-64
2023/03/04 04:14:46;;;;;;;100.20;27.65;;;;;;;;;;5074277;28;20209;-64
2023/03/04 04:17:13;;;;;;;98.00;27.00;;;;;;;;;;5074280;28;20201;-64
2023/03/04 04:19:41;;;;;;;99.15;26.35;;;;;;;;;;5074012;28;20207;-64
2023/03/04 04:22:08;;;;;;;103.30;25.63;;;;;;;;;;5074238;28;20232;-64
2023/03/04 04:24:37;;;;;;;103.15;27.50;;;;;;;;;;5074257;28;20217;-64
2023/03/04 04:27:04;;;;;;;99.25;26.35;;;;;;;;;;5074220;28;20252;-64
2023/03/04 04:29:31;;;;;;;106.50;28.88;;;;;;;;;;5073568;28;20197;-64
2023/03/04 04:31:58;;;;;;;95.78;25.33;;;;;;;;;;5074303;28;20573;-64
2023/03/04 04:34:25;;;;;;;107.40;29.80;;;;;;;;;;5074259;28;20201;-64
2023/03/04 04:36:52;;;;;;;103.90;29.20;;;;;;;;;;5073913;28;20721;-64
2023/03/04 04:39:19;;;;;;;106.88;30.98;;;;;;;;;;5073704;28;20211;-64
2023/03/04 04:41:48;;;;;;;109.22;29.63;;;;;;;;;;5073704;28;20233;-64
2023/03/04 04:44:16;;;;;;;106.85;27.73;;;;;;;;;;5073787;28;20648;-64
2023/03/04 04:46:43;;;;;;;95.43;25.20;;;;;;;;;;5073935;28;20486;-64
2023/03/04 04:49:10;;;;;;;102.95;28.42;;;;;;;;;;5073445;28;20292;-64
2023/03/04 04:51:38;;;;;;;104.63;27.38;;;;;;;;;;5073882;28;20212;-64
2023/03/04 04:54:06;;;;;;;100.30;26.75;;;;;;;;;;5073803;28;20560;-64
2023/03/04 04:56:33;;;;;;;101.68;28.15;;;;;;;;;;5073483;28;20716;-64
2023/03/04 04:59:03;;;;;;;105.80;28.45;;;;;;;;;;5073075;28;20665;-64
2023/03/04 05:01:30;;;;;;;97.55;26.95;;;;;;;;;;5073600;28;20205;-64
2023/03/04 05:03:57;;;;;;;105.80;28.52;;;;;;;;;;5073564;28;20201;-64
2023/03/04 05:06:24;;;;;;;102.60;27.58;;;;;;;;;;5073367;28;20595;-64
2023/03/04 05:08:52;;;;;;;100.22;26.65;;;;;;;;;;5073024;28;20205;-64
2023/03/04 05:11:20;;;;;;;101.55;28.75;;;;;;;;;;5073252;28;20217;-65
2023/03/04 05:13:47;;;;;;;103.63;27.60;;;;;;;;;;5073439;28;20208;-64
2023/03/04 05:16:16;;;;;;;105.75;28.45;;;;;;;;;;5073414;28;20221;-64
2023/03/04 05:18:43;;;;;;;100.78;28.75;;;;;;;;;;5072858;28;20205;-64
2023/03/04 05:21:10;;;;;;;108.70;29.17;;;;;;;;;;5073085;28;20211;-65
2023/03/04 05:23:38;;;;;;;102.13;28.55;;;;;;;;;;5072852;28;20229;-64
2023/03/04 05:26:06;;;;;;;101.18;26.45;;;;;;;;;;5072609;28;20233;-64
2023/03/04 05:28:33;;;;;;;101.47;27.50;;;;;;;;;;5072650;28;20678;-64
2023/03/04 05:31:00;;;;;;;102.68;26.92;;;;;;;;;;5072490;28;20228;-64
2023/03/04 05:33:29;;;;;;;110.13;30.80;;;;;;;;;;5072938;28;20665;-64
2023/03/04 05:35:56;;;;;;;102.95;27.63;;;;;;;;;;5073219;28;20233;-64
2023/03/04 05:38:24;;;;;;;99.07;28.00;;;;;;;;;;5072562;28;20211;-64
2023/03/04 05:40:56;;;;;;;101.38;26.00;;;;;;;;;;5072417;28;20211;-64
2023/03/04 05:43:23;;;;;;;104.32;29.85;;;;;;;;;;5072705;28;20229;-64
2023/03/04 05:45:50;;;;;;;102.55;28.98;;;;;;;;;;5072460;28;20310;-64
2023/03/04 05:48:17;;;;;;;104.25;27.70;;;;;;;;;;5072530;28;20307;-64
2023/03/04 05:50:45;;;;;;;104.03;28.73;;;;;;;;;;5072173;28;20208;-64
2023/03/04 05:53:12;;;;;;;100.15;28.10;;;;;;;;;;5072576;28;20205;-64
2023/03/04 05:55:39;;;;;;;103.13;26.95;;;;;;;;;;5072232;28;20776;-64
2023/03/04 05:58:07;;;;;;;102.72;28.75;;;;;;;;;;5072434;28;20213;-64
2023/03/04 06:00:34;;;;;;;98.97;29.27;;;;;;;;;;5072089;28;20205;-64
2023/03/04 06:03:01;;;;;;;102.40;27.00;;;;;;;;;;5072227;28;20251;-64
2023/03/04 06:05:28;;;;;;;99.50;25.90;;;;;;;;;;5072066;28;20221;-64
2023/03/04 06:07:56;;;;;;;99.53;27.27;;;;;;;;;;5071689;28;20220;-64
2023/03/04 06:10:23;;;;;;;97.20;25.13;;;;;;;;;;5071953;28;20205;-64
2023/03/04 06:12:50;;;;;;;99.68;25.33;;;;;;;;;;5072203;28;20197;-64
2023/03/04 06:15:18;;;;;;;97.63;24.35;;;;;;;;;;5071965;28;20709;-64
2023/03/04 06:17:45;;;;;;;98.78;24.30;;;;;;;;;;5072032;28;20205;-64
2023/03/04 06:20:12;;;;;;;98.93;24.10;;;;;;;;;;5071627;28;20677;-64
2023/03/04 06:22:40;;;;;;;100.63;26.20;;;;;;;;;;5072085;28;20231;-64
2023/03/04 06:25:09;;;;;;;93.88;25.50;;;;;;;;;;5071922;28;20316;-64
2023/03/04 06:27:36;;;;;;;94.55;25.85;;;;;;;;;;5071877;28;20205;-66
2023/03/04 06:30:03;;;;;;;102.30;24.13;;;;;;;;;;5071592;28;20201;-64
2023/03/04 06:32:30;;;;;;;97.20;24.52;;;;;;;;;;5071688;28;20228;-64
2023/03/04 06:34:57;;;;;;;94.43;24.52;;;;;;;;;;5071687;28;20216;-64
2023/03/04 06:37:24;;;;;;;95.95;23.83;;;;;;;;;;5071886;28;20211;-64
2023/03/04 06:39:51;;;;;;;96.60;25.83;;;;;;;;;;5071576;28;20205;-64
2023/03/04 06:42:20;;;;;;;102.85;25.42;;;;;;;;;;5070898;28;20225;-64
2023/03/04 06:44:49;;;;;;;105.03;29.95;;;;;;;;;;5071550;28;20208;-64
2023/03/04 06:47:17;;;;;;;108.22;28.10;;;;;;;;;;5071866;28;20209;-64
2023/03/04 06:49:44;;;;;;;97.22;30.17;;;;;;;;;;5071465;28;20201;-64
2023/03/04 06:52:11;;;;;;;113.80;32.75;;;;;;;;;;5071719;28;20207;-64
2023/03/04 06:54:39;;;;;;;111.72;32.50;;;;;;;;;;5071595;28;20201;-64
2023/03/04 06:57:06;;;;;;;108.50;31.70;;;;;;;;;;5071387;28;20225;-64
2023/03/04 06:59:35;;;;;;;106.80;31.23;;;;;;;;;;5071051;28;20213;-65
2023/03/04 07:02:02;;;;;;;102.47;27.65;;;;;;;;;;5071568;28;20205;-64
2023/03/04 07:04:29;;;;;;;102.90;28.85;;;;;;;;;;5071548;28;20215;-64
2023/03/04 07:06:56;;;;;;;104.95;28.95;;;;;;;;;;5071271;28;20250;-65
2023/03/04 07:09:23;;;;;;;107.45;31.27;;;;;;;;;;5071592;28;20573;-64
2023/03/04 07:11:50;;;;;;;102.32;26.70;;;;;;;;;;5071343;28;20201;-65
2023/03/04 07:14:17;;;;;;;105.75;29.25;;;;;;;;;;5071230;28;20202;-65
2023/03/04 07:16:46;;;;;;;106.55;28.20;;;;;;;;;;5071310;28;20227;-64
2023/03/04 07:19:13;;;;;;;109.10;30.90;;;;;;;;;;5070855;28;20679;-65
2023/03/04 07:21:40;;;;;;;106.05;30.45;;;;;;;;;;5071754;28;20202;-65
2023/03/04 07:24:07;;;;;;;106.88;34.78;;;;;;;;;;5071114;28;20746;-65
2023/03/04 07:26:36;;;;;;;137.52;50.08;;;;;;;;;;5071132;28;20229;-65
2023/03/04 07:29:04;;;;;;;108.72;31.67;;;;;;;;;;5070977;28;20208;-65
2023/03/04 07:31:32;;;;;;;106.10;31.77;;;;;;;;;;5071423;28;20209;-65
2023/03/04 07:34:01;;;;;;;109.55;31.15;;;;;;;;;;5071185;28;20290;-65
2023/03/04 07:36:28;;;;;;;101.10;29.30;;;;;;;;;;5071124;28;20575;-65
2023/03/04 07:38:56;;;;;;;103.85;28.38;;;;;;;;;;5070882;28;20208;-65
2023/03/04 07:41:24;;;;;;;107.53;31.00;;;;;;;;;;5071864;28;20210;-65
2023/03/04 07:43:51;;;;;;;99.75;27.88;;;;;;;;;;5071882;28;20232;-65
2023/03/04 07:46:19;;;;;;;106.13;26.95;;;;;;;;;;5071486;28;20229;-65
2023/03/04 07:48:46;;;;;;;95.93;24.40;;;;;;;;;;5071066;28;20213;-65
2023/03/04 07:51:15;;;;;;;99.70;27.05;;;;;;;;;;5071148;28;20602;-65
2023/03/04 07:53:44;;;;;;;99.07;26.27;;;;;;;;;;5072335;28;20211;-65
2023/03/04 07:56:12;;;;;;;96.05;25.38;;;;;;;;;;5074632;28;20231;-65
2023/03/04 07:58:39;;;;;;;100.93;27.48;;;;;;;;;;5074537;28;20203;-65
2023/03/04 08:01:09;;;;;;;97.45;26.00;;;;;;;;;;5074631;28;20689;-66
2023/03/04 08:03:36;;;;;;;98.40;25.13;;;;;;;;;;5074546;28;20224;-66
2023/03/04 08:06:05;;;;;;;95.80;25.45;;;;;;;;;;5074348;28;20226;-66
2023/03/04 08:08:33;;;;;;;100.10;24.77;;;;;;;;;;5074194;28;20207;-66
2023/03/04 08:11:00;;;;;;;98.15;25.15;;;;;;;;;;5074720;28;20214;-66
2023/03/04 08:13:27;;;;;;;99.47;25.75;;;;;;;;;;5074370;28;20205;-66
2023/03/04 08:15:56;;;;;;;96.70;25.20;;;;;;;;;;5074367;28;20249;-66
2023/03/04 08:18:23;;;;;;;95.80;25.55;;;;;;;;;;5074291;28;20204;-66
2023/03/04 08:20:51;;;;;;;98.65;24.42;;;;;;;;;;5074144;28;20212;-66
2023/03/04 08:23:18;;;;;;;92.40;23.75;;;;;;;;;;5074357;28;20306;-66
2023/03/04 08:25:47;;;;;;;94.00;23.13;;;;;;;;;;5074082;28;20237;-66
2023/03/04 08:28:14;;;;;;;90.78;23.08;;;;;;;;;;5074293;28;20208;-66
2023/03/04 08:30:41;;;;;;;93.28;25.13;;;;;;;;;;5074041;28;20207;-66
2023/03/04 08:33:09;;;;;;;100.05;24.17;;;;;;;;;;5074027;28;20209;-66
2023/03/04 08:35:37;;;;;;;94.35;25.08;;;;;;;;;;5073999;28;20235;-66
2023/03/04 08:38:04;;;;;;;93.88;24.33;;;;;;;;;;5074204;28;20588;-66
2023/03/04 08:40:31;;;;;;;98.13;27.33;;;;;;;;;;5073961;28;20208;-65
2023/03/04 08:43:01;;;;;;;88.25;23.45;;;;;;;;;;5073883;28;20236;-65
2023/03/04 08:45:28;;;;;;;87.03;23.10;;;;;;;;;;5073814;28;20259;-65
2023/03/04 08:47:55;;;;;;;89.97;23.08;;;;;;;;;;5073723;28;20207;-65
2023/03/04 08:50:22;;;;;;;96.38;25.55;;;;;;;;;;5073769;28;20208;-65
2023/03/04 08:52:49;;;;;;;88.53;22.40;;;;;;;;;;5073741;28;20209;-65
2023/03/04 08:55:16;;;;;;;97.95;25.02;;;;;;;;;;5073763;28;20229;-65
2023/03/04 08:57:43;;;;;;;92.20;21.65;;;;;;;;;;5073697;28;20203;-65
2023/03/04 09:00:13;;;;;;;89.65;21.45;;;;;;;;;;5073135;28;20220;-66
2023/03/04 09:02:40;;;;;;;95.93;23.95;;;;;;;;;;5073617;28;20283;-65
2023/03/04 09:05:07;;;;;;;92.30;24.00;;;;;;;;;;5072752;28;20215;-65
2023/03/04 09:07:35;;;;;;;92.57;24.95;;;;;;;;;;5073570;28;20204;-66
2023/03/04 09:10:02;;;;;;;89.35;23.00;;;;;;;;;;5073099;28;20202;-66
2023/03/04 09:12:29;;;;;;;93.45;23.73;;;;;;;;;;5073410;28;20529;-66
2023/03/04 09:14:56;;;;;;;95.30;24.00;;;;;;;;;;5073204;28;20203;-66
2023/03/04 09:17:24;;;;;;;92.70;24.30;;;;;;;;;;5073395;28;20672;-66
2023/03/04 09:19:51;;;;;;;93.60;22.88;;;;;;;;;;5072935;28;20206;-66
2023/03/04 09:22:18;;;;;;;92.10;22.80;;;;;;;;;;5073012;28;20219;-66
2023/03/04 09:24:45;;;;;;;89.43;22.92;;;;;;;;;;5073090;28;20586;-66
2023/03/04 09:27:13;;;;;;;92.00;23.48;;;;;;;;;;5073076;28;20221;-66
2023/03/04 09:29:40;;;;;;;89.32;22.27;;;;;;;;;;5072550;28;20208;-66
2023/03/04 09:32:07;;;;;;;96.22;23.50;;;;;;;;;;5072908;28;20256;-66
2023/03/04 09:34:35;;;;;;;90.20;23.80;;;;;;;;;;5073010;28;20204;-66
2023/03/04 09:37:02;;;;;;;93.80;22.08;;;;;;;;;;5072702;28;20235;-66
2023/03/04 09:39:29;;;;;;;93.32;21.90;;;;;;;;;;5072612;28;20201;-66
2023/03/04 09:41:58;;;;;;;91.00;22.80;;;;;;;;;;5072743;28;20212;-67
2023/03/04 09:44:26;;;;;;;92.20;22.40;;;;;;;;;;5072895;28;20229;-67
2023/03/04 09:46:57;;;;;;;88.38;20.42;;;;;;;;;;5072861;28;20235;-67
2023/03/04 09:49:24;;;;;;;99.05;24.67;;;;;;;;;;5072411;28;20209;-67
2023/03/04 09:51:58;;;;;;;88.28;21.27;;;;;;;;;;5072644;28;20212;-67
2023/03/04 09:54:36;;;;;;;90.13;22.58;;;;;;;;;;5072501;28;20208;-67
2023/03/04 09:57:16;;;;;;;95.35;22.08;;;;;;;;;;5072429;28;20224;-67
2023/03/04 09:59:45;;;;;;;98.30;21.33;;;;;;;;;;5072196;28;20205;-67
2023/03/04 10:02:17;;;;;;;92.40;22.55;;;;;;;;;;5072334;28;20772;-67
2023/03/04 10:04:48;;;;;;;89.70;22.85;;;;;;;;;;5072803;28;20228;-67
2023/03/04 10:07:18;;;;;;;90.03;22.73;;;;;;;;;;5072598;28;20215;-67
2023/03/04 10:09:47;;;;;;;91.68;23.02;;;;;;;;;;5072162;28;20221;-66
2023/03/04 10:12:15;;;;;;;88.88;21.98;;;;;;;;;;5072309;28;20213;-66
2023/03/04 10:14:45;;;;;;;94.25;22.70;;;;;;;;;;5072205;28;20202;-66
2023/03/04 10:17:14;;;;;;;88.93;21.75;;;;;;;;;;5071995;28;20229;-67
2023/03/04 10:19:51;;;;;;;86.88;22.40;;;;;;;;;;5071893;28;20590;-67
2023/03/04 10:22:24;;;;;;;89.25;19.95;;;;;;;;;;5071832;28;20622;-67
2023/03/04 10:24:53;;;;;;;89.68;21.20;;;;;;;;;;5071867;28;20425;-67
2023/03/04 10:27:22;;;;;;;86.25;19.70;;;;;;;;;;5071927;28;20209;-67
2023/03/04 10:29:49;;;;;;;88.10;21.20;;;;;;;;;;5071443;28;20211;-67
2023/03/04 10:32:18;;;;;;;82.55;20.13;;;;;;;;;;5072038;28;20200;-67
2023/03/04 10:34:45;;;;;;;86.32;19.88;;;;;;;;;;5071799;28;20201;-67
2023/03/04 10:37:12;;;;;;;85.97;18.77;;;;;;;;;;5071664;28;20229;-67
2023/03/04 10:39:42;;;;;;;88.47;20.30;;;;;;;;;;5071364;28;20748;-67
2023/03/04 10:42:24;;;;;;;85.43;19.90;;;;;;;;;;5071595;28;20213;-67
2023/03/04 10:44:54;;;;;;;88.47;21.17;;;;;;;;;;5072018;28;20233;-67
2023/03/04 10:47:23;;;;;;;84.07;20.02;;;;;;;;;;5071635;28;20209;-67
2023/03/04 10:49:52;;;;;;;87.03;22.02;;;;;;;;;;5071304;28;20216;-67
2023/03/04 10:52:23;;;;;;;87.47;21.90;;;;;;;;;;5071750;28;20205;-66
2023/03/04 10:54:54;;;;;;;87.47;21.35;;;;;;;;;;5071524;28;20705;-66
2023/03/04 10:57:22;;;;;;;87.38;20.73;;;;;;;;;;5071545;28;20228;-67
2023/03/04 10:59:52;;;;;;;84.30;21.40;;;;;;;;;;5071393;28;20211;-67
2023/03/04 11:02:23;;;;;;;84.78;21.25;;;;;;;;;;5071881;28;20300;-67
2023/03/04 11:04:52;;;;;;;84.82;20.30;;;;;;;;;;5071330;28;20225;-67
2023/03/04 11:07:19;;;;;;;86.88;20.20;;;;;;;;;;5071387;28;20205;-67
2023/03/04 11:09:46;;;;;;;85.00;20.48;;;;;;;;;;5071068;28;20215;-67
2023/03/04 11:12:16;;;;;;;83.90;19.42;;;;;;;;;;5071682;28;20563;-67
2023/03/04 11:14:47;;;;;;;85.32;21.60;;;;;;;;;;5071881;28;20205;-64
2023/03/04 11:17:23;;;;;;;91.53;23.67;;;;;;;;;;5071448;28;20209;-64
2023/03/04 11:19:53;;;;;;;84.15;20.63;;;;;;;;;;5071020;28;20204;-65
2023/03/04 11:22:22;;;;;;;86.15;20.88;;;;;;;;;;5071345;28;20220;-67
2023/03/04 11:24:53;;;;;;;84.03;21.52;;;;;;;;;;5071268;28;20221;-67
2023/03/04 11:27:24;;;;;;;88.13;23.80;;;;;;;;;;5071524;28;20205;-67
2023/03/04 11:29:52;;;;;;;88.30;23.00;;;;;;;;;;5074556;28;20468;-68
2023/03/04 11:32:22;;;;;;;86.65;21.33;;;;;;;;;;5075164;28;20300;-67
2023/03/04 11:34:51;;;;;;;89.70;22.60;;;;;;;;;;5075173;28;20677;-67
2023/03/04 11:37:22;;;;;;;90.38;22.85;;;;;;;;;;5075436;28;20708;-66
2023/03/04 11:39:51;;;;;;;93.15;26.30;;;;;;;;;;5074886;28;20205;-65
2023/03/04 11:42:25;;;;;;;93.95;22.80;;;;;;;;;;5075012;28;20211;-64
2023/03/04 11:44:53;;;;;;;92.00;24.85;;;;;;;;;;5074862;28;20221;-64
2023/03/04 11:47:26;;;;;;;91.35;23.23;;;;;;;;;;5075253;28;20236;-64
2023/03/04 11:49:59;;;;;;;90.35;24.17;;;;;;;;;;5074755;28;20201;-64
2023/03/04 11:52:34;;;;;;;92.95;24.15;;;;;;;;;;5075083;28;20296;-67
2023/03/04 11:55:06;;;;;;;89.75;24.88;;;;;;;;;;5075446;28;20204;-67
2023/03/04 11:57:39;;;;;;;95.45;22.35;;;;;;;;;;5074868;28;20240;-67
2023/03/04 12:00:12;;;;;;;94.70;24.45;;;;;;;;;;5074361;28;20205;-67
2023/03/04 12:02:42;;;;;;;91.72;26.08;;;;;;;;;;5075073;28;20209;-66
2023/03/04 12:05:20;;;;;;;91.43;23.55;;;;;;;;;;5074871;28;20239;-66
2023/03/04 12:07:53;;;;;;;89.43;23.45;;;;;;;;;;5074447;28;20204;-67
2023/03/04 12:10:22;;;;;;;88.70;24.40;;;;;;;;;;5074699;28;20212;-67
2023/03/04 12:13:01;;;;;;;95.13;25.90;;;;;;;;;;5074835;28;20227;-67
2023/03/04 12:15:29;;;;;;;89.45;23.75;;;;;;;;;;5074407;28;20748;-67
2023/03/04 12:18:11;;;;;;;99.97;26.63;;;;;;;;;;5074403;28;20245;-67
2023/03/04 12:20:42;;;;;;;98.50;25.05;;;;;;;;;;5071962;28;20217;-66
2023/03/04 12:23:18;;;;;;;93.10;26.73;;;;;;;;;;5074670;28;20231;-67
2023/03/04 12:25:50;;;;;;;100.55;25.85;;;;;;;;;;5074564;28;20619;-67
2023/03/04 12:28:32;;;;;;;91.00;23.60;;;;;;;;;;5074334;28;20209;-67
2023/03/04 12:31:08;;;;;;;95.82;27.35;;;;;;;;;;5061473;28;20205;-67
2023/03/04 12:33:40;;;;;;;95.85;26.00;;;;;;;;;;5074338;28;20373;-67
2023/03/04 12:36:11;;;;;;;94.65;27.23;;;;;;;;;;5074172;28;20225;-67
2023/03/04 12:38:50;;;;;;;98.20;26.38;;;;;;;;;;5074190;28;20212;-66
2023/03/04 12:41:27;;;;;;;95.70;26.40;;;;;;;;;;5072630;28;20231;-66
2023/03/04 12:43:58;;;;;;;91.65;27.17;;;;;;;;;;5074171;28;20220;-67
2023/03/04 12:46:35;;;;;;;101.20;26.27;;;;;;;;;;5074062;28;20304;-67
2023/03/04 12:49:30;;;;;;;99.75;26.50;;;;;;;;;;5073767;28;20244;-67
2023/03/04 12:52:02;;;;;;;99.45;29.27;;;;;;;;;;5038052;28;20205;-66
2023/03/04 12:54:32;;;;;;;99.40;27.58;;;;;;;;;;5073926;28;20205;-66
2023/03/04 12:57:01;;;;;;;98.00;31.35;;;;;;;;;;5073898;28;20664;-66
2023/03/04 12:59:37;;;;;;;96.07;27.85;;;;;;;;;;5073349;28;20209;-66
2023/03/04 13:02:11;;;;;;;102.65;30.10;;;;;;;;;;5073503;28;20216;-66
2023/03/04 13:04:42;;;;;;;100.40;27.25;;;;;;;;;;5073736;28;20244;-66
2023/03/04 13:07:12;;;;;;;101.85;30.00;;;;;;;;;;5073808;28;20603;-66
2023/03/04 13:09:44;;;;;;;102.72;29.13;;;;;;;;;;5073342;28;20549;-66
2023/03/04 13:12:15;;;;;;;103.32;30.35;;;;;;;;;;5073512;28;20650;-66
2023/03/04 13:15:03;;;;;;;101.10;29.80;;;;;;;;;;5073401;28;20207;-66
2023/03/04 13:17:41;;;;;;;117.63;34.33;;;;;;;;;;5073534;28;20205;-66
2023/03/04 13:20:18;;;;;;;102.68;29.42;;;;;;;;;;5072919;28;20585;-67
2023/03/04 13:22:51;;;;;;;107.55;34.97;;;;;;;;;;5073131;28;20204;-66
2023/03/04 13:25:33;;;;;;;102.50;31.33;;;;;;;;;;5073064;28;20236;-66
2023/03/04 13:28:11;;;;;;;104.82;29.75;;;;;;;;;;5070907;28;20262;-66
2023/03/04 13:30:43;;;;;;;105.10;35.83;;;;;;;;;;5072808;28;20241;-66
2023/03/04 13:33:29;;;;;;;99.65;27.08;;;;;;;;;;5072842;28;20213;-66
2023/03/04 13:36:02;;;;;;;107.63;27.17;;;;;;;;;;5073077;28;20220;-66
2023/03/04 13:38:33;;;;;;;100.03;27.67;;;;;;;;;;5072962;28;20299;-66
2023/03/04 13:41:13;;;;;;;97.70;28.05;;;;;;;;;;5072974;28;20205;-66
2023/03/04 13:43:41;;;;;;;97.82;27.13;;;;;;;;;;5072716;28;20207;-66
2023/03/04 13:46:27;;;;;;;91.55;23.77;;;;;;;;;;5072843;28;20229;-66
2023/03/04 13:49:02;;;;;;;101.22;27.05;;;;;;;;;;5072511;28;20201;-66
2023/03/04 13:51:31;;;;;;;97.60;26.98;;;;;;;;;;5072310;28;20291;-65
2023/03/04 13:54:08;;;;;;;92.80;24.70;;;;;;;;;;5072636;28;20212;-67
2023/03/04 13:56:35;;;;;;;93.05;22.58;;;;;;;;;;5072756;28;20225;-67
2023/03/04 13:59:21;;;;;;;90.68;24.75;;;;;;;;;;5072630;28;20313;-67
2023/03/04 14:01:54;;;;;;;91.20;22.90;;;;;;;;;;5072525;28;20241;-67
2023/03/04 14:04:23;;;;;;;94.20;23.27;;;;;;;;;;5072481;28;20213;-66
2023/03/04 14:06:52;;;;;;;92.72;25.58;;;;;;;;;;5072423;28;20270;-66
2023/03/04 14:09:21;;;;;;;93.75;22.52;;;;;;;;;;5072374;28;20540;-66
2023/03/04 14:11:49;;;;;;;88.15;22.50;;;;;;;;;;5072398;28;20220;-66
2023/03/04 14:14:17;;;;;;;92.93;23.63;;;;;;;;;;5072190;28;20209;-66
2023/03/04 14:16:47;;;;;;;89.72;24.73;;;;;;;;;;5072096;28;20231;-66
2023/03/04 14:19:16;;;;;;;91.13;23.42;;;;;;;;;;5072159;28;20558;-66
2023/03/04 14:21:45;;;;;;;98.68;25.17;;;;;;;;;;5072433;28;20211;-66